Tiempo atmosférico en la estación meteorológica de Valdemorillo, Madrid (884 m.)



Fecha
DESCASC
Temp. máxima en grados centígrados (hora)
DESCASC
Temp. mínima en grados centígrados (hora)
DESCASC
Temp. media en grados centígrados
DESCASC
Racha de viento máxima en m/sg (hora)
DESCASC
Velocidad máxima media en intervalos de 10 minutos(hora)
DESCASC
Precipitaciones diarias en mm
DESCASC
Precipitaciones de 00:00 a 06:00 en mm
DESCASC
Precipitaciones de 06:00 a 12:00 en mm
DESCASC
Precipitaciones de 12:00 a 18:00 en mm
DESCASC
Precipitaciones de 18:00 a 24:00 en mm
DESCASC
10-11-2019 8.1 (00:00) 4.7 (00:00) 6.4 17.5 (00:40) 8.89 (00:50) 0.8 0 0 0.8 0
09-11-2019 9.8 (12:40) 5 (00:00) 7.4 15 (23:59) 7.78 (23:59) 2.2 0 0 2 0.2
08-11-2019 11.2 (15:20) 3.5 (00:00) 7.3 13.89 (20:40) 7.22 (23:40) 0 0 0 0 0
07-11-2019 11 (14:20) 4 (00:00) 7.5 13.89 (15:30) 7.78 (18:20) 0.8 0 0.2 0 0.6
06-11-2019 13.8 (16:10) 7.1 (00:00) 10.5 11.11 (01:00) 6.39 (01:40) 0 0 0 0 0
05-11-2019 13.4 (15:00) 7.3 (00:00) 10.3 14.72 (16:00) 7.78 (15:50) 0.6 0 0 0 0.6
04-11-2019 16 (15:00) 8.9 (00:00) 12.4 15.28 (15:30) 8.61 (15:30) 6.8 0 0 0 6.8
03-11-2019 14.4 (07:20) 10.9 (00:00) 12.6 19.44 (07:00) 12.5 (07:00) 0 0 0 0 0
02-11-2019 17.9 (15:00) 11.8 (00:00) 14.8 11.94 (17:20) 6.67 (14:50) 0.4 0.2 0.2 0 0
01-11-2019 18.9 (12:30) 14.6 (00:00) 16.8 10 (14:30) 5.83 (14:30) 0 0 0 0 0
31-10-2019 21.8 (15:20) 13.6 (08:00) 17.7 9.72 (13:10) 5.28 (13:10) 0.6 0 0 0 0.6
30-10-2019 17.3 (12:30) 10.1 (00:00) 13.7 5 (13:20) 3.06 (14:30) 0 0 0 0 0
29-10-2019 19.3 (15:50) 9.6 (00:00) 14.4 4.17 (11:20) 2.22 (16:40) 0 0 0 0 0
28-10-2019 21.5 (15:40) 11.8 (00:00) 16.7 5.83 (16:50) 3.61 (17:10) 0 0 0 0 0
27-10-2019 20.7 (16:00) 9.4 (00:00) 15.1 4.72 (13:40) 2.5 (06:00) 0 0 0 0 0
26-10-2019 22.4 (17:00) 7.9 (00:00) 15.1 4.44 (16:20) 2.5 (06:00) 0 0 0 0 0
25-10-2019 20.2 (16:40) 7.1 (00:00) 13.7 4.72 (18:00) 2.5 (17:00) 0 0 0 0 0
24-10-2019 17.8 (16:10) 7.1 (00:00) 12.4 9.17 (11:20) 4.44 (06:50) 0 0 0 0 0
23-10-2019 9.1 (17:10) 6 (00:00) 7.6 4.17 (14:00) 2.78 (13:40) 6 4.8 0.8 0 0.4
22-10-2019 11.4 (13:00) 6 (00:00) 8.7 8.33 (13:10) 4.44 (12:00) 2.4 0 0 1.6 0.8
21-10-2019 14.6 (16:40) 3.5 (00:00) 9.1 4.72 (15:10) 2.5 (15:30) 0 0 0 0 0
20-10-2019 11.9 (16:30) 7.1 (00:00) 9.5 10.56 (20:00) 6.11 (20:00) 2.2 0.8 0 1.4 0
19-10-2019 15.6 (15:00) 8.2 (00:00) 11.9 10.83 (15:20) 6.39 (15:30) 4.8 0 0 0 4.8
18-10-2019 18.5 (15:00) 12.5 (00:00) 15.5 11.39 (17:30) 6.94 (17:10) 2 2 0 0 0
17-10-2019 15.5 (15:00) 7.5 (00:00) 11.5 6.11 (15:50) 3.89 (15:50) 0.8 0 0.8 0 0
16-10-2019 18.1 (16:30) 5.9 (00:00) 12 6.94 (15:50) 3.89 (18:30) 0 0 0 0 0
15-10-2019 15.8 (15:40) 6.2 (00:00) 11 12.22 (02:50) 7.5 (02:50) 0 0 0 0 0
14-10-2019 18.1 (16:30) 8.4 (00:00) 13.3 16.11 (16:20) 8.61 (16:10) 3.4 0 0.2 0.2 3

Gráficas

Temp. máximas Temp. mínimas Temp. medias Precipitaciones Rachas de viento máximas Velocidades máximas media en intervalos de 10 minutos

Datos horarios

Fecha y hora oficial Temperatura (ºC) Velocidad del viento (km/h) Dirección del viento Racha (km/h) Dirección de racha Precipitación (mm) Presión (hPa) Tendencia (hPa) Humedad (%)
2019-11-12 23:00:00 6.9 14 Sudoeste 28 Sudoeste 0.4 -- -- 96
2019-11-12 22:00:00 7.4 14 Sudoeste 22 Sudoeste 0.4 -- -- 95
2019-11-12 21:00:00 7.8 13 Sudoeste 23 Oeste 0.2 -- -- 91
2019-11-12 20:00:00 9.8 9 Noroeste 24 Noroeste 0 -- -- 72
2019-11-12 19:00:00 10.1 13 Noroeste 21 Noroeste 0 -- -- 58
2019-11-12 18:00:00 10.6 9 Sudoeste 22 Oeste 0 -- -- 62
2019-11-12 17:00:00 11.5 14 Noroeste 30 Oeste 0 -- -- 49
2019-11-12 16:00:00 11.2 13 Noroeste 31 Noroeste 0 -- -- 51
2019-11-12 15:00:00 10.7 7 Noroeste 21 Noroeste 0 -- -- 52
2019-11-12 14:00:00 10.7 7 Noroeste 27 Noroeste 0 -- -- 53
2019-11-12 13:00:00 10 16 Norte 35 Norte 0 -- -- 52
2019-11-12 12:00:00 8.8 15 Norte 45 Norte 0 -- -- 55
2019-11-12 11:00:00 8.9 19 Norte 48 Norte 0 -- -- 56
2019-11-12 10:00:00 8.3 12 Noroeste 44 Norte 0 -- -- 59
2019-11-12 09:00:00 7 21 Norte 35 Norte 0 -- -- 62
2019-11-12 08:00:00 5.3 5 Oeste 26 Norte 0 -- -- 68
2019-11-12 07:00:00 6.4 15 Norte 29 Norte 0 -- -- 63
2019-11-12 06:00:00 6.2 6 Noroeste 18 Oeste 0 -- -- 64
2019-11-12 05:00:00 6.8 9 Norte 27 Norte 0 -- -- 63
2019-11-12 04:00:00 6.5 7 Norte 19 Nordeste 0 -- -- 66
2019-11-12 03:00:00 7.6 9 Sudeste 33 Oeste 0 -- -- 60
2019-11-12 02:00:00 6 4 Noroeste 12 Noroeste 0 -- -- 69
2019-11-12 01:00:00 6.2 3 Nordeste 19 Norte 0 -- -- 70
2019-11-12 00:00:00 7.1 9 Norte 15 Norte 0 -- -- 67
2019-11-11 23:00:00 7.7 8 Norte 15 Norte 0 -- -- 68
2019-11-11 22:00:00 7.3 2 Norte 9 Norte 0 -- -- 71
2019-11-11 21:00:00 8.5 6 Norte 18 Noroeste 0 -- -- 69
2019-11-11 20:00:00 8.9 9 Norte 18 Norte 0 -- -- 68
2019-11-11 19:00:00 9.8 8 Norte 18 Norte 0 -- -- 68
2019-11-11 18:00:00 10.8 5 Noroeste 15 Nordeste 0 -- -- 65
2019-11-11 17:00:00 11.7 8 Norte 38 Norte 0 -- -- 63
2019-11-11 16:00:00 12.4 17 Norte 36 Norte 0 -- -- 65
2019-11-11 15:00:00 9.9 8 Oeste 14 Sur 0 -- -- 82
2019-11-11 14:00:00 9.4 6 Sur 14 Sur 0 -- -- 79
2019-11-11 13:00:00 8.3 9 Sudeste 19 Oeste 0 -- -- 80
2019-11-11 12:00:00 8.3 10 Oeste 24 Oeste 0 -- -- 83
2019-11-11 11:00:00 7.7 12 Oeste 22 Oeste 0 -- -- 86
2019-11-11 10:00:00 6.8 8 Oeste 15 Sudoeste 0 -- -- 85
2019-11-11 09:00:00 6.3 6 Sudoeste 13 Noroeste 0 -- -- 84
2019-11-11 08:00:00 6.5 9 Noroeste 18 Noroeste 0 -- -- 79
2019-11-11 07:00:00 6.2 10 Noroeste 19 Noroeste 0 -- -- 79
2019-11-11 06:00:00 5.6 6 Noroeste 13 Oeste 0 -- -- 81
2019-11-11 05:00:00 5.5 6 Noroeste 21 Noroeste 0 -- -- 79
2019-11-11 04:00:00 5.3 12 Noroeste 22 Noroeste 0 -- -- 80
2019-11-11 03:00:00 5.3 8 Noroeste 18 Noroeste 0 -- -- 80
2019-11-11 02:00:00 5.3 4 Oeste 16 Noroeste 0 -- -- 82
2019-11-11 01:00:00 5.6 6 Noroeste 12 Noroeste 0 -- -- 80
2019-11-11 00:00:00 5.4 3 Norte 12 Noroeste 0 -- -- 82
2019-11-10 23:00:00 5.9 5 Nordeste 13 Norte 0 -- -- 74
2019-11-10 22:00:00 6.1 6 Norte 17 Norte 0 -- -- 73
2019-11-10 21:00:00 6.4 6 Norte 22 Norte 0 -- -- 71
2019-11-10 20:00:00 6.3 9 Norte 21 Noroeste 0 -- -- 69
2019-11-10 19:00:00 6.3 7 Norte 30 Norte 0 -- -- 70
2019-11-10 18:00:00 6.3 13 Noroeste 34 Norte 0 -- -- 71
2019-11-10 17:00:00 6.3 9 Noroeste 28 Noroeste 0.2 -- -- 75
2019-11-10 16:00:00 5.4 6 Noroeste 25 Oeste 0.2 -- -- 84
2019-11-10 15:00:00 5.2 14 Oeste 32 Oeste 0.4 -- -- 85
2019-11-10 14:00:00 6.9 18 Noroeste 45 Noroeste 0 -- -- 73
2019-11-10 13:00:00 7.3 27 Noroeste 49 Noroeste 0 -- -- 68
2019-11-10 12:00:00 7.3 21 Noroeste 49 Norte 0 -- -- 61
2019-11-10 11:00:00 6.8 21 Noroeste 49 Noroeste 0 -- -- 61
2019-11-10 10:00:00 6.3 17 Noroeste 37 Noroeste 0 -- -- 61
2019-11-10 09:00:00 5.6 16 Norte 40 Noroeste 0 -- -- 64
2019-11-10 08:00:00 4.7 12 Norte 47 Norte 0 -- -- 66
2019-11-10 07:00:00 5.2 27 Norte 46 Norte 0 -- -- 59
2019-11-10 06:00:00 5.5 26 Norte 52 Norte 0 -- -- 58
2019-11-10 05:00:00 5.9 27 Norte 56 Norte 0 -- -- 58
2019-11-10 04:00:00 6.5 24 Norte 49 Norte 0 -- -- 60
2019-11-10 03:00:00 7 19 Norte 55 Noroeste 0 -- -- 68
2019-11-10 02:00:00 8.1 25 Norte 54 Norte 0 -- -- 63
2019-11-10 01:00:00 8 29 Noroeste 63 Noroeste 0 -- -- 67
2019-11-10 00:00:00 8.1 28 Noroeste 54 Oeste 0 -- -- 66
2019-11-09 23:00:00 8.6 21 Noroeste 42 Noroeste 0 -- -- 69
2019-11-09 22:00:00 8.4 7 Sudoeste 20 Sudoeste 0 -- -- 80
2019-11-09 21:00:00 8.8 11 Sur 30 Oeste 0 -- -- 81
2019-11-09 20:00:00 6.7 9 Sudoeste 17 Oeste 0 -- -- 98
2019-11-09 19:00:00 5.6 8 Oeste 16 Sudoeste 0.2 -- -- 97
2019-11-09 18:00:00 5.4 8 Oeste 17 Sudoeste 0.4 -- -- 97
2019-11-09 17:00:00 5.4 13 Sudoeste 22 Oeste 1.2 -- -- 95
2019-11-09 16:00:00 5.8 10 Oeste 28 Oeste 0.2 -- -- 93
2019-11-09 15:00:00 6.8 10 Oeste 26 Sudoeste 0.2 -- -- 87
2019-11-09 14:00:00 8.6 14 Oeste 28 Oeste 0 -- -- 74
2019-11-09 13:00:00 9.2 12 Oeste 25 Oeste 0 -- -- 59
2019-11-09 12:00:00 9 13 Oeste 27 Noroeste 0 -- -- 62
2019-11-09 11:00:00 8.1 10 Noroeste 31 Noroeste 0 -- -- 62
2019-11-09 10:00:00 6.9 16 Noroeste 41 Noroeste 0 -- -- 62
2019-11-09 09:00:00 5.6 15 Noroeste 28 Noroeste 0 -- -- 69
2019-11-09 08:00:00 5.3 11 Noroeste 28 Norte 0 -- -- 69
2019-11-09 07:00:00 5.4 10 Noroeste 25 Noroeste 0 -- -- 68
2019-11-09 06:00:00 5.1 8 Noroeste 24 Oeste 0 -- -- 70
2019-11-09 05:00:00 5 12 Noroeste 27 Noroeste 0 -- -- 70
2019-11-09 04:00:00 5.6 11 Norte 26 Noroeste 0 -- -- 67
2019-11-09 03:00:00 5.1 4 Noroeste 22 Noroeste 0 -- -- 72
2019-11-09 02:00:00 5.5 15 Noroeste 40 Noroeste 0 -- -- 72
2019-11-09 01:00:00 5.7 24 Noroeste 38 Noroeste 0 -- -- 69
2019-11-09 00:00:00 6 23 Noroeste 42 Oeste 0 -- -- 68
2019-11-08 23:00:00 6.6 19 Noroeste 40 Noroeste 0 -- -- 67
2019-11-08 22:00:00 6.9 20 Noroeste 40 Noroeste 0 -- -- 66
2019-11-08 21:00:00 7.3 18 Noroeste 50 Noroeste 0 -- -- 64
2019-11-08 20:00:00 7.3 22 Oeste 40 Noroeste 0 -- -- 65
2019-11-08 19:00:00 7.8 15 Noroeste 30 Oeste 0 -- -- 59
2019-11-08 18:00:00 9.2 14 Noroeste 37 Oeste 0 -- -- 52
2019-11-08 17:00:00 10.3 16 Noroeste 37 Noroeste 0 -- -- 49
2019-11-08 16:00:00 10.8 18 Noroeste 41 Oeste 0 -- -- 44
2019-11-08 15:00:00 10.9 17 Noroeste 37 Oeste 0 -- -- 44
2019-11-08 14:00:00 10.4 21 Noroeste 37 Oeste 0 -- -- 46
2019-11-08 13:00:00 9.8 16 Noroeste 34 Oeste 0 -- -- 48
2019-11-08 12:00:00 8.5 14 Noroeste 36 Noroeste 0 -- -- 55
2019-11-08 11:00:00 6.5 18 Noroeste 39 Noroeste 0 -- -- 63
2019-11-08 10:00:00 5.2 25 Noroeste 46 Noroeste 0 -- -- 69
2019-11-08 09:00:00 4.2 18 Noroeste 36 Noroeste 0 -- -- 71
2019-11-08 08:00:00 3.7 19 Noroeste 34 Noroeste 0 -- -- 71
2019-11-08 07:00:00 3.6 9 Noroeste 33 Noroeste 0 -- -- 70
2019-11-08 06:00:00 3.6 12 Noroeste 30 Oeste 0 -- -- 70
2019-11-08 05:00:00 4 19 Noroeste 45 Noroeste 0 -- -- 68
2019-11-08 04:00:00 4.2 13 Noroeste 39 Noroeste 0 -- -- 68
2019-11-08 03:00:00 4 16 Oeste 44 Noroeste 0 -- -- 67
2019-11-08 02:00:00 4.2 18 Noroeste 44 Oeste 0 -- -- 68
2019-11-08 01:00:00 4.3 15 Oeste 36 Noroeste 0 -- -- 70
2019-11-08 00:00:00 4.4 14 Noroeste 31 Oeste 0 -- -- 71
2019-11-07 23:00:00 4.5 13 Noroeste 34 Noroeste 0 -- -- 74
2019-11-07 22:00:00 4.1 16 Noroeste 31 Noroeste 0 -- -- 79
2019-11-07 21:00:00 4.4 6 Noroeste 39 Noroeste 0.6 -- -- 84
2019-11-07 20:00:00 5.8 23 Noroeste 45 Noroeste 0 -- -- 77
2019-11-07 19:00:00 5.6 22 Noroeste 49 Oeste 0 -- -- 74
2019-11-07 18:00:00 7.5 21 Noroeste 45 Noroeste 0 -- -- 61
2019-11-07 17:00:00 9.8 22 Noroeste 48 Noroeste 0 -- -- 49
2019-11-07 16:00:00 10.7 22 Noroeste 50 Oeste 0 -- -- 44
2019-11-07 15:00:00 10.3 28 Noroeste 48 Noroeste 0 -- -- 44
2019-11-07 14:00:00 10.7 21 Noroeste 40 Noroeste 0 -- -- 48
2019-11-07 13:00:00 8.8 8 Noroeste 25 Noroeste 0 -- -- 59
2019-11-07 12:00:00 9.3 10 Noroeste 35 Noroeste 0 -- -- 57
2019-11-07 11:00:00 9 12 Noroeste 39 Oeste 0 -- -- 60
2019-11-07 10:00:00 10.1 15 Noroeste 34 Noroeste 0.2 -- -- 63
2019-11-07 09:00:00 9.8 18 Noroeste 34 Noroeste 0 -- -- 69
2019-11-07 08:00:00 9.5 16 Noroeste 27 Noroeste 0 -- -- 77
2019-11-07 07:00:00 8.9 10 Noroeste 17 Sudoeste 0 -- -- 97
2019-11-07 06:00:00 8.4 6 Sudoeste 13 Oeste 0 -- -- 97
2019-11-07 05:00:00 7.8 6 Sudoeste 15 Sudoeste 0 -- -- 97
2019-11-07 04:00:00 7.4 9 Sudoeste 15 Sudoeste 0 -- -- 95
2019-11-07 03:00:00 7.1 9 Sudoeste 15 Sudoeste 0 -- -- 92
2019-11-07 02:00:00 7.9 8 Oeste 19 Oeste 0 -- -- 88
2019-11-07 01:00:00 8.4 7 Oeste 13 Oeste 0 -- -- 83
2019-11-07 00:00:00 8.4 8 Sudoeste 18 Oeste 0 -- -- 77
2019-11-06 23:00:00 8.9 8 Sudoeste 15 Sudoeste 0 -- -- 76
2019-11-06 22:00:00 9.1 6 Sur 24 Noroeste 0 -- -- 74
2019-11-06 21:00:00 10.1 10 Noroeste 22 Oeste 0 -- -- 70
2019-11-06 20:00:00 9.8 5 Oeste 15 Oeste 0 -- -- 68
2019-11-06 19:00:00 10.7 8 Oeste 25 Oeste 0 -- -- 61
2019-11-06 18:00:00 11.7 11 Oeste 28 Oeste 0 -- -- 56
2019-11-06 17:00:00 12.7 16 Oeste 27 Oeste 0 -- -- 50
2019-11-06 16:00:00 13.6 9 Noroeste 21 Norte 0 -- -- 46
2019-11-06 15:00:00 12.4 14 Norte 23 Noroeste 0 -- -- 51
2019-11-06 14:00:00 12 11 Noroeste 26 Noroeste 0 -- -- 52
2019-11-06 13:00:00 12.3 8 Norte 31 Noroeste 0 -- -- 51
2019-11-06 12:00:00 11.4 13 Noroeste 26 Norte 0 -- -- 53
2019-11-06 11:00:00 9.7 14 Norte 28 Norte 0 -- -- 61
2019-11-06 10:00:00 8.9 13 Norte 29 Norte 0 -- -- 66
2019-11-06 09:00:00 7.8 11 Noroeste 25 Norte 0 -- -- 71
2019-11-06 08:00:00 7.2 9 Noroeste 29 Norte 0 -- -- 73
2019-11-06 07:00:00 7.1 18 Noroeste 30 Noroeste 0 -- -- 74
2019-11-06 06:00:00 7.4 10 Noroeste 32 Noroeste 0 -- -- 74
2019-11-06 05:00:00 7.6 11 Oeste 18 Oeste 0 -- -- 74
2019-11-06 04:00:00 7.8 9 Oeste 25 Noroeste 0 -- -- 72
2019-11-06 03:00:00 7.8 12 Oeste 30 Noroeste 0 -- -- 73
2019-11-06 02:00:00 8.4 18 Noroeste 38 Noroeste 0 -- -- 72
2019-11-06 01:00:00 9 21 Noroeste 40 Noroeste 0 -- -- 70
2019-11-06 00:00:00 9.3 12 Oeste 29 Oeste 0 -- -- 70
2019-11-05 23:00:00 9.4 15 Noroeste 32 Noroeste 0 -- -- 70
2019-11-05 22:00:00 9.3 16 Noroeste 44 Noroeste 0 -- -- 72
2019-11-05 21:00:00 8.7 17 Noroeste 45 Noroeste 0.6 -- -- 81
2019-11-05 20:00:00 10.1 22 Noroeste 44 Noroeste 0 -- -- 72
2019-11-05 19:00:00 10.9 20 Noroeste 42 Oeste 0 -- -- 63
2019-11-05 18:00:00 11.5 17 Noroeste 47 Noroeste 0 -- -- 59
2019-11-05 17:00:00 12.4 19 Noroeste 50 Oeste 0 -- -- 56
2019-11-05 16:00:00 13.1 26 Noroeste 53 Oeste 0 -- -- 54
2019-11-05 15:00:00 13.4 23 Oeste 49 Noroeste 0 -- -- 56
2019-11-05 14:00:00 12.2 22 Noroeste 52 Noroeste 0 -- -- 58
2019-11-05 13:00:00 11.7 23 Oeste 42 Oeste 0 -- -- 61
2019-11-05 12:00:00 10.8 18 Noroeste 36 Noroeste 0 -- -- 64
2019-11-05 11:00:00 10.2 17 Oeste 41 Oeste 0 -- -- 65
2019-11-05 10:00:00 9.8 19 Oeste 44 Oeste 0 -- -- 65
2019-11-05 09:00:00 8.2 14 Noroeste 33 Noroeste 0 -- -- 70
2019-11-05 08:00:00 7.4 21 Oeste 40 Oeste 0 -- -- 70
2019-11-05 07:00:00 7.6 13 Oeste 42 Noroeste 0 -- -- 72
2019-11-05 06:00:00 7.7 18 Oeste 40 Oeste 0 -- -- 72
2019-11-05 05:00:00 7.7 14 Noroeste 32 Oeste 0 -- -- 70
2019-11-05 04:00:00 7.9 23 Oeste 39 Oeste 0 -- -- 70
2019-11-05 03:00:00 7.6 13 Oeste 37 Oeste 0 -- -- 72
2019-11-05 02:00:00 7.8 17 Noroeste 31 Oeste 0 -- -- 72
2019-11-05 01:00:00 8.2 17 Oeste 44 Noroeste 0 -- -- 75
2019-11-05 00:00:00 8.9 21 Noroeste 50 Noroeste 0 -- -- 72
2019-11-04 23:00:00 9.6 19 Noroeste 44 Oeste 0 -- -- 77
2019-11-04 22:00:00 10 17 Oeste 40 Oeste 1 -- -- 81
2019-11-04 21:00:00 10.5 6 Sudoeste 17 Oeste 1.2 -- -- 94
2019-11-04 20:00:00 10.6 9 Sudoeste 30 Oeste 0.8 -- -- 94
2019-11-04 19:00:00 11.8 18 Oeste 48 Oeste 3.8 -- -- 95
2019-11-04 18:00:00 12.5 28 Sudoeste 49 Sudoeste 0 -- -- 89
2019-11-04 17:00:00 13.5 23 Sudoeste 42 Sudoeste 0 -- -- 82
2019-11-04 16:00:00 14 22 Sudoeste 55 Sudoeste 0 -- -- 79
2019-11-04 15:00:00 16 26 Sudoeste 53 Oeste 0 -- -- 67
2019-11-04 14:00:00 14.8 28 Sudoeste 55 Oeste 0 -- -- 72
2019-11-04 13:00:00 14.7 26 Oeste 55 Sudoeste 0 -- -- 70
2019-11-04 12:00:00 13.2 27 Oeste 46 Oeste 0 -- -- 80
2019-11-04 11:00:00 12.5 20 Oeste 37 Oeste 0 -- -- 81
2019-11-04 10:00:00 12.5 14 Sudoeste 29 Sudoeste 0 -- -- 84
2019-11-04 09:00:00 10.5 12 Sudoeste 22 Sudoeste 0 -- -- 94
2019-11-04 08:00:00 10.6 14 Sudoeste 27 Sudoeste 0 -- -- 97
2019-11-04 07:00:00 10.4 7 Oeste 13 Sudoeste 0 -- -- 96
2019-11-04 06:00:00 10.1 5 Sudoeste 21 Sudoeste 0 -- -- 94
2019-11-04 05:00:00 10.6 8 Oeste 20 Oeste 0 -- -- 93
2019-11-04 04:00:00 10.5 9 Oeste 20 Oeste 0 -- -- 92
2019-11-04 03:00:00 10.7 13 Sudoeste 22 Sudoeste 0 -- -- 92
2019-11-04 02:00:00 10.6 8 Sudoeste 24 Sudoeste 0 -- -- 89
2019-11-04 01:00:00 11.8 10 Oeste 20 Oeste 0 -- -- 82
2019-11-04 00:00:00 12 9 Sudoeste 18 Sudoeste 0 -- -- 75
2019-11-03 23:00:00 12.3 9 Sudoeste 18 Oeste 0 -- -- 68
2019-11-03 22:00:00 13.7 10 Noroeste 26 Oeste 0 -- -- 66
2019-11-03 21:00:00 13.3 12 Oeste 24 Oeste 0 -- -- 67
2019-11-03 20:00:00 12.9 10 Oeste 30 Noroeste 0 -- -- 63
2019-11-03 19:00:00 12.7 15 Noroeste 48 Noroeste 0 -- -- 61
2019-11-03 18:00:00 13.1 21 Noroeste 44 Noroeste 0 -- -- 56
2019-11-03 17:00:00 13.1 29 Noroeste 55 Oeste 0 -- -- 53
2019-11-03 16:00:00 13 37 Noroeste 62 Noroeste 0 -- -- 56
2019-11-03 15:00:00 13.7 28 Noroeste 58 Noroeste 0 -- -- 54
2019-11-03 14:00:00 13.4 29 Noroeste 55 Noroeste 0 -- -- 54
2019-11-03 13:00:00 13 27 Noroeste 49 Noroeste 0 -- -- 54
2019-11-03 12:00:00 12.5 22 Noroeste 57 Noroeste 0 -- -- 54
2019-11-03 11:00:00 12.1 29 Noroeste 58 Noroeste 0 -- -- 59
2019-11-03 10:00:00 12.4 35 Noroeste 70 Noroeste 0 -- -- 56
2019-11-03 09:00:00 13.7 27 Noroeste 60 Oeste 0 -- -- 69
2019-11-03 08:00:00 14.2 30 Oeste 63 Oeste 0 -- -- 69
2019-11-03 07:00:00 14.2 45 Oeste 70 Oeste 0 -- -- 70
2019-11-03 06:00:00 11.3 18 Sudoeste 34 Sudoeste 0 -- -- 90
2019-11-03 05:00:00 11 16 Sudoeste 32 Sudoeste 0 -- -- 92
2019-11-03 04:00:00 11.1 19 Sudoeste 31 Oeste 0 -- -- 94
2019-11-03 03:00:00 11.2 18 Sudoeste 40 Sudoeste 0 -- -- 91
2019-11-03 02:00:00 11.4 17 Sudoeste 36 Sudoeste 0 -- -- 88
2019-11-03 01:00:00 11.3 15 Sudoeste 25 Sudoeste 0 -- -- 88
2019-11-03 00:00:00 11.8 12 Sudoeste 30 Sudoeste 0 -- -- 85
2019-11-02 23:00:00 12.3 16 Sudoeste 28 Sudoeste 0 -- -- 87
2019-11-02 22:00:00 12.6 14 Sudoeste 27 Sudoeste 0 -- -- 90
2019-11-02 21:00:00 12.7 12 Sudoeste 27 Sudoeste 0 -- -- 93
2019-11-02 20:00:00 13.5 13 Sudoeste 22 Sudoeste 0 -- -- 90
2019-11-02 19:00:00 14.3 12 Sudoeste 27 Oeste 0 -- -- 84
2019-11-02 18:00:00 15.1 15 Oeste 43 Oeste 0 -- -- 80
2019-11-02 17:00:00 16.1 23 Oeste 38 Oeste 0 -- -- 74
2019-11-02 16:00:00 16.6 21 Oeste 41 Sudoeste 0 -- -- 72
2019-11-02 15:00:00 17.9 22 Oeste 42 Sudoeste 0 -- -- 69
2019-11-02 14:00:00 16.4 20 Sudoeste 39 Oeste 0 -- -- 77
2019-11-02 13:00:00 16.8 17 Sudoeste 36 Sudoeste 0 -- -- 77
2019-11-02 12:00:00 17.1 20 Sudoeste 32 Sudoeste 0 -- -- 77
2019-11-02 11:00:00 15.6 16 Sudoeste 29 Oeste 0 -- -- 87
2019-11-02 10:00:00 14.3 17 Oeste 33 Oeste 0 -- -- 92
2019-11-02 09:00:00 13.2 14 Sudoeste 24 Sudoeste 0 -- -- 97
2019-11-02 08:00:00 13 9 Sudoeste 18 Sudoeste 0.2 -- -- 98
2019-11-02 07:00:00 13 9 Sudoeste 17 Oeste 0 -- -- 98
2019-11-02 06:00:00 13.1 9 Sudoeste 14 Sudoeste 0 -- -- 98
2019-11-02 05:00:00 13.2 6 Oeste 22 Sudoeste 0 -- -- 98
2019-11-02 04:00:00 13.4 11 Sudoeste 22 Oeste 0 -- -- 98
2019-11-02 03:00:00 13.8 14 Sudoeste 23 Sudoeste 0.2 -- -- 98
2019-11-02 02:00:00 13.9 12 Sudoeste 19 Sudoeste 0 -- -- 97
2019-11-02 01:00:00 14.2 11 Oeste 23 Oeste 0 -- -- 93
2019-11-02 00:00:00 14.6 10 Oeste 18 Oeste 0 -- -- 92
2019-11-01 23:00:00 14.8 10 Sudoeste 17 Sudoeste 0 -- -- 93
2019-11-01 22:00:00 15.1 10 Sudoeste 25 Sudoeste 0 -- -- 91
2019-11-01 21:00:00 15.8 9 Sudoeste 34 Oeste 0 -- -- 86
2019-11-01 20:00:00 15.8 12 Oeste 22 Oeste 0 -- -- 89
2019-11-01 19:00:00 16.1 9 Sudoeste 28 Sudoeste 0 -- -- 89
2019-11-01 18:00:00 16.8 10 Sudoeste 27 Sudoeste 0 -- -- 87
2019-11-01 17:00:00 17.4 11 Sudoeste 35 Sudoeste 0 -- -- 84
2019-11-01 16:00:00 17.5 18 Sudoeste 32 Sudoeste 0 -- -- 83
2019-11-01 15:00:00 16.9 14 Sudoeste 36 Sudoeste 0 -- -- 89
2019-11-01 14:00:00 18.3 15 Sudoeste 34 Sudoeste 0 -- -- 77
2019-11-01 13:00:00 18.3 17 Sudoeste 27 Sudoeste 0 -- -- 79
2019-11-01 12:00:00 17.8 15 Sudoeste 25 Sudoeste 0 -- -- 83
2019-11-01 11:00:00 16.4 11 Sudoeste 22 Oeste 0 -- -- 86
2019-11-01 10:00:00 17.3 11 Oeste 23 Sudoeste 0 -- -- 78
2019-11-01 09:00:00 15.8 10 Sudoeste 27 Noroeste 0 -- -- 82
2019-11-01 08:00:00 16.6 11 Oeste 27 Oeste 0 -- -- 76
2019-11-01 07:00:00 16 8 Oeste 23 Oeste 0 -- -- 81
2019-11-01 06:00:00 16.7 8 Oeste 21 Oeste 0 -- -- 77
2019-11-01 05:00:00 16.7 11 Noroeste 27 Oeste 0 -- -- 77
2019-11-01 04:00:00 16.5 17 Oeste 31 Noroeste 0 -- -- 79
2019-11-01 03:00:00 16.6 19 Oeste 30 Oeste 0 -- -- 78
2019-11-01 02:00:00 16.4 12 Oeste 30 Noroeste 0 -- -- 81
2019-11-01 01:00:00 16.6 12 Noroeste 25 Oeste 0 -- -- 81
2019-11-01 00:00:00 16.5 10 Oeste 18 Oeste 0 -- -- 83
2019-10-31 23:00:00 15.9 10 Oeste 21 Oeste 0 -- -- 86
2019-10-31 22:00:00 15.8 7 Oeste 21 Oeste 0.6 -- -- 86
2019-10-31 21:00:00 17.1 11 Oeste 22 Oeste 0 -- -- 75
2019-10-31 20:00:00 17.7 14 Oeste 24 Oeste 0 -- -- 67
2019-10-31 19:00:00 18.5 11 Noroeste 25 Noroeste 0 -- -- 57
2019-10-31 18:00:00 19.5 8 Noroeste 25 Oeste 0 -- -- 52
2019-10-31 17:00:00 20.7 12 Oeste 24 Oeste 0 -- -- 51
2019-10-31 16:00:00 21.1 15 Noroeste 30 Oeste 0 -- -- 49
2019-10-31 15:00:00 21.3 11 Noroeste 30 Noroeste 0 -- -- 48
2019-10-31 14:00:00 20 15 Oeste 35 Oeste 0 -- -- 53
2019-10-31 13:00:00 19.9 14 Oeste 26 Oeste 0 -- -- 54
2019-10-31 12:00:00 19.1 10 Norte 22 Noroeste 0 -- -- 57
2019-10-31 11:00:00 18 10 Norte 22 Oeste 0 -- -- 61
2019-10-31 10:00:00 17.1 5 Noroeste 19 Noroeste 0 -- -- 67
2019-10-31 09:00:00 14.5 5 Oeste 12 Sudoeste 0 -- -- 82
2019-10-31 08:00:00 13.6 6 Oeste 12 Oeste 0 -- -- 85
2019-10-31 07:00:00 14.3 5 Sudoeste 13 Sudoeste 0 -- -- 80
2019-10-31 06:00:00 14.3 4 Oeste 13 Sudoeste 0 -- -- 82
2019-10-31 05:00:00 15 7 Oeste 21 Sudoeste 0 -- -- 81
2019-10-31 04:00:00 14.4 9 Sudoeste 19 Sudoeste 0 -- -- 89
2019-10-31 03:00:00 13.8 7 Sudoeste 14 Sudoeste 0 -- -- 93
2019-10-31 02:00:00 14.1 4 Sudoeste 9 Sudoeste 0 -- -- 90
2019-10-31 01:00:00 14.2 4 Oeste 9 Sudoeste 0 -- -- 89
2019-10-31 00:00:00 14.4 5 Oeste 10 Oeste 0 -- -- 88
2019-10-30 23:00:00 14.7 4 Oeste 12 Oeste 0 -- -- 87
2019-10-30 22:00:00 15.2 6 Oeste 13 Oeste 0 -- -- 82
2019-10-30 21:00:00 15.4 6 Oeste 13 Oeste 0 -- -- 79
2019-10-30 20:00:00 15.6 6 Oeste 12 Oeste 0 -- -- 76
2019-10-30 19:00:00 15.5 5 Oeste 11 Sudoeste 0 -- -- 78
2019-10-30 18:00:00 15.8 6 Sudoeste 12 Sudoeste 0 -- -- 76
2019-10-30 17:00:00 16.5 4 Sudoeste 14 Sudoeste 0 -- -- 75
2019-10-30 16:00:00 16.8 7 Sudoeste 18 Sudoeste 0 -- -- 74
2019-10-30 15:00:00 17.1 8 Sudoeste 17 Sudoeste 0 -- -- 67
2019-10-30 14:00:00 17.1 8 Sudoeste 18 Sudoeste 0 -- -- 67
2019-10-30 13:00:00 17.1 10 Sudoeste 17 Sudoeste 0 -- -- 68
2019-10-30 12:00:00 16.8 6 Sur 12 Sudoeste 0 -- -- 72
2019-10-30 11:00:00 15.8 4 Sudeste 9 Este 0 -- -- 77
2019-10-30 10:00:00 13.8 2 Sudoeste 5 Oeste 0 -- -- 86
2019-10-30 09:00:00 12.4 2 Sudeste 9 Este 0 -- -- 91
2019-10-30 08:00:00 10.2 6 Este 9 Este 0 -- -- 92
2019-10-30 07:00:00 10.3 6 Nordeste 8 Nordeste 0 -- -- 89
2019-10-30 06:00:00 10.8 2 Nordeste 4 Nordeste 0 -- -- 88
2019-10-30 05:00:00 11.6 0 Calma 9 Este 0 -- -- 85
2019-10-30 04:00:00 12 5 Nordeste 9 Nordeste 0 -- -- 81
2019-10-30 03:00:00 12.2 6 Este 10 Este 0 -- -- 84
2019-10-30 02:00:00 12.4 6 Este 9 Este 0 -- -- 79
2019-10-30 01:00:00 12 3 Este 6 Nordeste 0 -- -- 74
2019-10-30 00:00:00 12.3 3 Nordeste 5 Nordeste 0 -- -- 74
2019-10-29 23:00:00 13 3 Nordeste 8 Nordeste 0 -- -- 73
2019-10-29 22:00:00 13.3 2 Noroeste 6 Norte 0 -- -- 75
2019-10-29 21:00:00 14.2 5 Nordeste 9 Nordeste 0 -- -- 79
2019-10-29 20:00:00 14.9 0 Calma 4 Noroeste 0 -- -- 75
2019-10-29 19:00:00 16.3 2 Sudoeste 6 Sudoeste 0 -- -- 71
2019-10-29 18:00:00 17.1 2 Sudoeste 12 Sudoeste 0 -- -- 70
2019-10-29 17:00:00 18.5 6 Sur 14 Sudoeste 0 -- -- 65
2019-10-29 16:00:00 19.1 6 Sur 15 Sur 0 -- -- 61
2019-10-29 15:00:00 18.8 5 Sur 13 Sur 0 -- -- 62
2019-10-29 14:00:00 17.4 5 Sudeste 13 Este 0 -- -- 67
2019-10-29 13:00:00 15.6 7 Sudeste 12 Sudeste 0 -- -- 76
2019-10-29 12:00:00 13.9 8 Este 15 Este 0 -- -- 81
2019-10-29 11:00:00 14.7 7 Este 13 Sudeste 0 -- -- 77
2019-10-29 10:00:00 13.2 8 Este 13 Este 0 -- -- 82
2019-10-29 09:00:00 10.8 6 Este 12 Este 0 -- -- 92
2019-10-29 08:00:00 10 7 Este 13 Este 0 -- -- 94
2019-10-29 07:00:00 9.9 8 Este 10 Este 0 -- -- 93
2019-10-29 06:00:00 9.7 0 Calma 8 Nordeste 0 -- -- 89
2019-10-29 05:00:00 10.1 3 Este 9 Nordeste 0 -- -- 89
2019-10-29 04:00:00 10.3 3 Norte 7 Nordeste 0 -- -- 89
2019-10-29 03:00:00 10.6 5 Nordeste 7 Nordeste 0 -- -- 87
2019-10-29 02:00:00 11.4 3 Sudeste 8 Este 0 -- -- 85
2019-10-29 01:00:00 11.4 5 Nordeste 8 Nordeste 0 -- -- 85
2019-10-29 00:00:00 11.8 0 Calma 3 Sudeste 0 -- -- 83
2019-10-28 23:00:00 12.8 2 Este 7 Sudoeste 0 -- -- 81
2019-10-28 22:00:00 13.4 3 Sur 5 Sudoeste 0 -- -- 76
2019-10-28 21:00:00 14.1 0 Calma 5 Sudoeste 0 -- -- 71
2019-10-28 20:00:00 15.6 3 Sudoeste 12 Sudoeste 0 -- -- 65
2019-10-28 19:00:00 16.6 6 Sudoeste 15 Sudoeste 0 -- -- 62
2019-10-28 18:00:00 18.2 9 Sudoeste 19 Sudoeste 0 -- -- 58
2019-10-28 17:00:00 20.1 10 Sudoeste 21 Sudoeste 0 -- -- 55
2019-10-28 16:00:00 20.7 12 Sudoeste 20 Sudoeste 0 -- -- 53
2019-10-28 15:00:00 20.7 9 Sudoeste 17 Sudoeste 0 -- -- 52
2019-10-28 14:00:00 20.7 8 Sudoeste 20 Sudoeste 0 -- -- 51
2019-10-28 13:00:00 19 6 Sudoeste 13 Oeste 0 -- -- 55
2019-10-28 12:00:00 18.3 5 Sur 11 Sudeste 0 -- -- 59
2019-10-28 11:00:00 17.3 5 Sudeste 10 Este 0 -- -- 62
2019-10-28 10:00:00 14.8 7 Nordeste 11 Nordeste 0 -- -- 70
2019-10-28 09:00:00 11.9 4 Este 6 Este 0 -- -- 77
2019-10-28 08:00:00 12.2 2 Este 10 Nordeste 0 -- -- 73
2019-10-28 07:00:00 12.8 6 Nordeste 14 Nordeste 0 -- -- 72
2019-10-28 06:00:00 13.2 4 Este 10 Nordeste 0 -- -- 71
2019-10-28 05:00:00 13 2 Noroeste 13 Nordeste 0 -- -- 73
2019-10-28 04:00:00 13.6 9 Nordeste 13 Nordeste 0 -- -- 70
2019-10-28 03:00:00 13.7 8 Este 14 Nordeste 0 -- -- 68
2019-10-28 02:00:00 14.3 6 Nordeste 13 Nordeste 0 -- -- 65
2019-10-28 01:00:00 14.3 5 Nordeste 10 Nordeste 0 -- -- 66
2019-10-28 00:00:00 14.5 4 Nordeste 10 Nordeste 0 -- -- 66
2019-10-27 23:00:00 14.4 4 Nordeste 8 Norte 0 -- -- 68
2019-10-27 22:00:00 14.9 5 Norte 8 Norte 0 -- -- 66
2019-10-27 21:00:00 15.4 6 Nordeste 9 Nordeste 0 -- -- 65
2019-10-27 20:00:00 15.7 3 Nordeste 6 Nordeste 0 -- -- 66
2019-10-27 19:00:00 16.7 2 Sudeste 6 Este 0 -- -- 60
2019-10-27 18:00:00 18.6 3 Este 8 Sudeste 0 -- -- 55
2019-10-27 17:00:00 19.6 5 Sudeste 12 Sudeste 0 -- -- 50
2019-10-27 16:00:00 20.7 8 Sudoeste 13 Sur 0 -- -- 47
2019-10-27 15:00:00 20 6 Sudeste 15 Sur 0 -- -- 47
2019-10-27 14:00:00 20.3 4 Sur 17 Este 0 -- -- 47
2019-10-27 13:00:00 20.3 5 Sudeste 11 Sudeste 0 -- -- 46
2019-10-27 12:00:00 18 4 Nordeste 9 Este 0 -- -- 53
2019-10-27 11:00:00 17.4 3 Sudeste 8 Este 0 -- -- 57
2019-10-27 10:00:00 14.4 5 Nordeste 9 Este 0 -- -- 65
2019-10-27 09:00:00 11.8 6 Nordeste 10 Este 0 -- -- 74
2019-10-27 08:00:00 9.5 7 Este 11 Nordeste 0 -- -- 78
2019-10-27 07:00:00 9.4 7 Nordeste 10 Este 0 -- -- 77
2019-10-27 06:00:00 10.1 9 Este 11 Nordeste 0 -- -- 76
2019-10-27 05:00:00 10.5 5 Este 8 Nordeste 0 -- -- 74
2019-10-27 04:00:00 11.3 6 Nordeste 9 Nordeste 0 -- -- 71
2019-10-27 03:00:00 11.9 6 Nordeste 12 Nordeste 0 -- -- 68
2019-10-27 02:00:00 12.4 6 Nordeste 11 Nordeste 0 -- -- 66
2019-10-27 01:00:00 12.5 6 Nordeste 10 Nordeste 0 -- -- 67
2019-10-27 00:00:00 12.4 4 Nordeste 8 Nordeste 0 -- -- 69
2019-10-26 23:00:00 12.9 5 Nordeste 9 Nordeste 0 -- -- 69
2019-10-26 22:00:00 13.4 5 Este 8 Nordeste 0 -- -- 66
2019-10-26 21:00:00 14.8 2 Norte 4 Sur 0 -- -- 60
2019-10-26 20:00:00 16.5 3 Sur 5 Sudoeste 0 -- -- 55
2019-10-26 19:00:00 19.7 3 Sudoeste 12 Sudoeste 0 -- -- 46
2019-10-26 18:00:00 21 6 Sur 14 Sur 0 -- -- 43
2019-10-26 17:00:00 22.4 4 Sudoeste 16 Sudoeste 0 -- -- 42
2019-10-26 16:00:00 21.6 4 Sudoeste 15 Sudeste 0 -- -- 46
2019-10-26 15:00:00 20.6 7 Sur 15 Sur 0 -- -- 50
2019-10-26 14:00:00 19.9 5 Sur 13 Sudoeste 0 -- -- 49
2019-10-26 13:00:00 18.1 6 Sudeste 14 Este 0 -- -- 56
2019-10-26 12:00:00 16.7 5 Este 10 Este 0 -- -- 64
2019-10-26 11:00:00 14.3 6 Este 11 Este 0 -- -- 69
2019-10-26 10:00:00 10.7 6 Nordeste 10 Nordeste 0 -- -- 77
2019-10-26 09:00:00 8.3 6 Nordeste 10 Norte 0 -- -- 83
2019-10-26 08:00:00 8.1 7 Nordeste 11 Nordeste 0 -- -- 84
2019-10-26 07:00:00 8.3 6 Nordeste 13 Nordeste 0 -- -- 84
2019-10-26 06:00:00 8.9 9 Este 12 Nordeste 0 -- -- 82
2019-10-26 05:00:00 9.6 3 Este 7 Nordeste 0 -- -- 79
2019-10-26 04:00:00 10.1 5 Nordeste 10 Nordeste 0 -- -- 76
2019-10-26 03:00:00 9.7 5 Nordeste 9 Este 0 -- -- 81
2019-10-26 02:00:00 10.3 5 Este 8 Este 0 -- -- 79
2019-10-26 01:00:00 11 4 Este 9 Nordeste 0 -- -- 78
2019-10-26 00:00:00 11.8 4 Nordeste 8 Nordeste 0 -- -- 76
2019-10-25 23:00:00 12.5 5 Nordeste 9 Nordeste 0 -- -- 74
2019-10-25 22:00:00 12.4 4 Nordeste 6 Nordeste 0 -- -- 74
2019-10-25 21:00:00 13.4 0 Calma 2 Norte 0 -- -- 68
2019-10-25 20:00:00 15.3 3 Sudoeste 9 Sudoeste 0 -- -- 63
2019-10-25 19:00:00 17.7 6 Sudoeste 13 Sudoeste 0 -- -- 54
2019-10-25 18:00:00 18.9 8 Sudoeste 17 Sudoeste 0 -- -- 52
2019-10-25 17:00:00 19.9 9 Sudoeste 16 Sudoeste 0 -- -- 50
2019-10-25 16:00:00 19.3 8 Sur 15 Sur 0 -- -- 53
2019-10-25 15:00:00 18.6 7 Sur 13 Sur 0 -- -- 53
2019-10-25 14:00:00 17 6 Sudeste 14 Sudeste 0 -- -- 59
2019-10-25 13:00:00 15.8 4 Este 10 Sudeste 0 -- -- 65
2019-10-25 12:00:00 14.4 4 Este 10 Este 0 -- -- 71
2019-10-25 11:00:00 12.4 6 Nordeste 10 Este 0 -- -- 80
2019-10-25 10:00:00 9.3 6 Nordeste 13 Este 0 -- -- 89
2019-10-25 09:00:00 7.1 7 Nordeste 11 Nordeste 0 -- -- 93
2019-10-25 08:00:00 7.3 7 Nordeste 13 Este 0 -- -- 93
2019-10-25 07:00:00 7.7 6 Este 10 Nordeste 0 -- -- 92
2019-10-25 06:00:00 8.2 6 Este 9 Nordeste 0 -- -- 91
2019-10-25 05:00:00 8.6 3 Este 7 Este 0 -- -- 87
2019-10-25 04:00:00 9.3 4 Nordeste 12 Nordeste 0 -- -- 85
2019-10-25 03:00:00 10 6 Nordeste 12 Nordeste 0 -- -- 85
2019-10-25 02:00:00 10.3 4 Nordeste 10 Nordeste 0 -- -- 84
2019-10-25 01:00:00 10.7 5 Este 9 Nordeste 0 -- -- 84
2019-10-25 00:00:00 11.1 4 Norte 8 Norte 0 -- -- 83
2019-10-24 23:00:00 12.4 4 Norte 19 Nordeste 0 -- -- 77
2019-10-24 22:00:00 12.3 5 Norte 10 Nordeste 0 -- -- 78
2019-10-24 21:00:00 12.5 0 Calma 13 Oeste 0 -- -- 75
2019-10-24 20:00:00 13.8 4 Sudeste 15 Noroeste 0 -- -- 70
2019-10-24 19:00:00 16 11 Noroeste 23 Oeste 0 -- -- 61
2019-10-24 18:00:00 17.5 11 Noroeste 23 Noroeste 0 -- -- 52
2019-10-24 17:00:00 16.8 8 Norte 21 Sudoeste 0 -- -- 54
2019-10-24 16:00:00 17.7 7 Noroeste 22 Oeste 0 -- -- 51
2019-10-24 15:00:00 16.4 5 Oeste 15 Sudoeste 0 -- -- 50
2019-10-24 14:00:00 14.3 6 Norte 15 Nordeste 0 -- -- 55
2019-10-24 13:00:00 12.6 5 Norte 22 Oeste 0 -- -- 57
2019-10-24 12:00:00 11.3 8 Noroeste 33 Oeste 0 -- -- 65
2019-10-24 11:00:00 10.2 9 Noroeste 26 Oeste 0 -- -- 67
2019-10-24 10:00:00 9.1 4 Oeste 14 Sudoeste 0 -- -- 73
2019-10-24 09:00:00 7.4 7 Sudoeste 20 Noroeste 0 -- -- 77
2019-10-24 08:00:00 7.3 6 Noroeste 23 Noroeste 0 -- -- 76
2019-10-24 07:00:00 7.9 13 Norte 26 Noroeste 0 -- -- 74
2019-10-24 06:00:00 7.4 0 Calma 6 Noroeste 0 -- -- 85
2019-10-24 05:00:00 8 6 Noroeste 16 Noroeste 0 -- -- 83
2019-10-24 04:00:00 8.1 4 Noroeste 9 Oeste 0 -- -- 82
2019-10-24 03:00:00 8.3 9 Noroeste 15 Noroeste 0 -- -- 84
2019-10-24 02:00:00 8.1 0 Calma 8 Noroeste 0 -- -- 88
2019-10-24 01:00:00 7.7 0 Calma 7 Oeste 0 -- -- 90
2019-10-24 00:00:00 8.2 2 Noroeste 12 Noroeste 0 -- -- 89
2019-10-23 23:00:00 8 3 Oeste 15 Oeste 0 -- -- 95
2019-10-23 22:00:00 7.8 3 Sudoeste 7 Sudoeste 0 -- -- 96
2019-10-23 21:00:00 8 2 Oeste 10 Oeste 0.2 -- -- 96
2019-10-23 20:00:00 8.4 4 Sudoeste 10 Oeste 0.2 -- -- 96
2019-10-23 19:00:00 8.6 3 Sudoeste 6 Oeste 0 -- -- 91
2019-10-23 18:00:00 8.8 3 Sudoeste 10 Sudoeste 0 -- -- 92
2019-10-23 17:00:00 9 5 Oeste 11 Sudoeste 0 -- -- 90
2019-10-23 16:00:00 8.5 6 Sudoeste 12 Sudoeste 0 -- -- 95
2019-10-23 15:00:00 7.8 6 Sudoeste 15 Oeste 0 -- -- 97
2019-10-23 14:00:00 7.3 8 Sudoeste 15 Sudoeste 0 -- -- 97
2019-10-23 13:00:00 7.2 7 Sudoeste 13 Oeste 0 -- -- 97
2019-10-23 12:00:00 7 7 Sudoeste 11 Sudoeste 0.2 -- -- 98
2019-10-23 11:00:00 6.7 5 Sudoeste 10 Sudoeste 0.2 -- -- 98
2019-10-23 10:00:00 6.3 3 Sudoeste 10 Sudoeste 0 -- -- 97
2019-10-23 09:00:00 6 6 Sudoeste 10 Sudoeste 0 -- -- 97
2019-10-23 08:00:00 6.2 6 Sudoeste 13 Sudoeste 0.2 -- -- 96
2019-10-23 07:00:00 6.4 6 Sudoeste 10 Sudoeste 0.2 -- -- 96
2019-10-23 06:00:00 6.6 4 Sudoeste 8 Sudoeste 1.2 -- -- 96
2019-10-23 05:00:00 6.6 6 Sudoeste 9 Sudoeste 0.6 -- -- 95
2019-10-23 04:00:00 6.7 5 Sudoeste 9 Sudoeste 1 -- -- 95
2019-10-23 03:00:00 6.9 4 Sudoeste 10 Sudoeste 0.6 -- -- 91
2019-10-23 02:00:00 7.1 4 Oeste 11 Norte 0.8 -- -- 93
2019-10-23 01:00:00 7.2 2 Este 5 Sur 0.6 -- -- 92
2019-10-23 00:00:00 7.1 2 Sudoeste 13 Oeste 0.4 -- -- 93
2019-10-22 23:00:00 7.8 5 Oeste 11 Noroeste 0.2 -- -- 87
2019-10-22 22:00:00 8.3 3 Noroeste 17 Nordeste 0.2 -- -- 82
2019-10-22 21:00:00 8.6 9 Norte 23 Nordeste 0 -- -- 77
2019-10-22 20:00:00 8.3 11 Norte 19 Norte 0 -- -- 82
2019-10-22 19:00:00 8.2 3 Noroeste 8 Oeste 0 -- -- 89
2019-10-22 18:00:00 8.3 4 Noroeste 12 Norte 0 -- -- 87
2019-10-22 17:00:00 8.5 4 Norte 12 Norte 0 -- -- 88
2019-10-22 16:00:00 8.2 6 Norte 15 Nordeste 0.6 -- -- 91
2019-10-22 15:00:00 9.1 6 Nordeste 27 Este 0 -- -- 81
2019-10-22 14:00:00 9 8 Este 30 Este 1 -- -- 84
2019-10-22 13:00:00 11.4 13 Nordeste 29 Nordeste 0 -- -- 64
2019-10-22 12:00:00 10.3 16 Nordeste 29 Nordeste 0 -- -- 68
2019-10-22 11:00:00 8.8 7 Nordeste 17 Nordeste 0 -- -- 72
2019-10-22 10:00:00 7.3 8 Nordeste 15 Nordeste 0 -- -- 77
2019-10-22 09:00:00 7.3 10 Nordeste 16 Nordeste 0 -- -- 75
2019-10-22 08:00:00 6.8 6 Nordeste 16 Nordeste 0 -- -- 80
2019-10-22 07:00:00 7.3 8 Nordeste 16 Nordeste 0 -- -- 79
2019-10-22 06:00:00 7.2 10 Nordeste 19 Norte 0 -- -- 80
2019-10-22 05:00:00 6.9 13 Nordeste 21 Nordeste 0 -- -- 77
2019-10-22 04:00:00 6.4 9 Nordeste 16 Nordeste 0 -- -- 80
2019-10-22 03:00:00 6.4 8 Nordeste 16 Norte 0 -- -- 79
2019-10-22 02:00:00 6.7 9 Nordeste 15 Nordeste 0 -- -- 78
2019-10-22 01:00:00 7.3 8 Nordeste 15 Norte 0 -- -- 76
2019-10-22 00:00:00 7.4 7 Nordeste 14 Nordeste 0 -- -- 77
2019-10-21 23:00:00 7.9 8 Nordeste 13 Nordeste 0 -- -- 76
2019-10-21 22:00:00 8.5 5 Nordeste 9 Nordeste 0 -- -- 73
2019-10-21 21:00:00 9.4 0 Calma 7 Sur 0 -- -- 69
2019-10-21 20:00:00 10.6 3 Sudoeste 6 Sur 0 -- -- 64
2019-10-21 19:00:00 11.6 3 Sur 12 Sur 0 -- -- 59
2019-10-21 18:00:00 12.5 7 Sur 15 Sudoeste 0 -- -- 54
2019-10-21 17:00:00 14.5 5 Sudoeste 15 Oeste 0 -- -- 46
2019-10-21 16:00:00 14 6 Sudoeste 17 Sudoeste 0 -- -- 50
2019-10-21 15:00:00 13.3 5 Sudeste 13 Sudoeste 0 -- -- 56
2019-10-21 14:00:00 12.8 5 Sur 15 Sudoeste 0 -- -- 56
2019-10-21 13:00:00 11.7 9 Sudoeste 15 Sudoeste 0 -- -- 62
2019-10-21 12:00:00 10.4 3 Sudoeste 7 Norte 0 -- -- 71
2019-10-21 11:00:00 8 0 Calma 8 Nordeste 0 -- -- 79
2019-10-21 10:00:00 5.5 4 Nordeste 7 Nordeste 0 -- -- 88
2019-10-21 09:00:00 4.1 3 Nordeste 7 Nordeste 0 -- -- 92
2019-10-21 08:00:00 3.7 4 Nordeste 8 Este 0 -- -- 93
2019-10-21 07:00:00 3.6 5 Este 7 Nordeste 0 -- -- 92
2019-10-21 06:00:00 3.8 5 Nordeste 8 Nordeste 0 -- -- 92
2019-10-21 05:00:00 4 0 Calma 9 Este 0 -- -- 89
2019-10-21 04:00:00 4.5 4 Nordeste 9 Nordeste 0 -- -- 88
2019-10-21 03:00:00 5.6 5 Nordeste 10 Nordeste 0 -- -- 85
2019-10-21 02:00:00 6.1 5 Nordeste 10 Nordeste 0 -- -- 83
2019-10-21 01:00:00 6.4 3 Este 8 Sudeste 0 -- -- 81
2019-10-21 00:00:00 7.2 2 Norte 17 Norte 0 -- -- 76
2019-10-20 23:00:00 7.9 9 Norte 18 Norte 0 -- -- 72
2019-10-20 22:00:00 8.5 13 Norte 30 Norte 0 -- -- 69
2019-10-20 21:00:00 8.5 16 Norte 28 Norte 0 -- -- 69
2019-10-20 20:00:00 8.7 22 Norte 38 Noroeste 0 -- -- 71
2019-10-20 19:00:00 9.4 16 Norte 32 Norte 0 -- -- 69
2019-10-20 18:00:00 11.2 13 Noroeste 28 Noroeste 0 -- -- 64
2019-10-20 17:00:00 11 13 Noroeste 29 Noroeste 0 -- -- 65
2019-10-20 16:00:00 10.9 10 Oeste 25 Noroeste 0 -- -- 73
2019-10-20 15:00:00 10 15 Sudoeste 26 Sudoeste 0 -- -- 95
2019-10-20 14:00:00 9.7 11 Sudoeste 18 Sudoeste 0.2 -- -- 95
2019-10-20 13:00:00 8.8 10 Sudoeste 22 Oeste 1.2 -- -- 95
2019-10-20 12:00:00 8.6 9 Oeste 21 Sudoeste 0 -- -- 98
2019-10-20 11:00:00 8.1 10 Sudoeste 19 Sudoeste 0 -- -- 98
2019-10-20 10:00:00 7.6 9 Sudoeste 18 Sudoeste 0 -- -- 98
2019-10-20 09:00:00 7.4 7 Sudoeste 17 Sudoeste 0 -- -- 97
2019-10-20 08:00:00 7.5 6 Oeste 21 Sudoeste 0 -- -- 95
2019-10-20 07:00:00 7.6 10 Sudoeste 21 Sudoeste 0 -- -- 96
2019-10-20 06:00:00 7.7 13 Sudoeste 23 Sudoeste 0 -- -- 96
2019-10-20 05:00:00 8.4 8 Oeste 23 Sudoeste 0 -- -- 97
2019-10-20 04:00:00 8.8 13 Sudoeste 21 Sudoeste 0 -- -- 97
2019-10-20 03:00:00 9.2 13 Sudoeste 31 Oeste 0 -- -- 97
2019-10-20 02:00:00 10.8 14 Sudoeste 27 Sudoeste 0 -- -- 98
2019-10-20 01:00:00 11.3 14 Sudoeste 21 Sudoeste 0.8 -- -- 98
2019-10-20 00:00:00 11.6 8 Sur 17 Sudoeste 0 -- -- 97
2019-10-19 23:00:00 12.1 6 Sudeste 12 Sur 0.6 -- -- 94
2019-10-19 22:00:00 12.3 3 Sudeste 12 Nordeste 2.6 -- -- 93
2019-10-19 21:00:00 12.7 4 Norte 16 Noroeste 1.6 -- -- 88
2019-10-19 20:00:00 13.3 3 Este 6 Este 0 -- -- 82
2019-10-19 19:00:00 13.5 3 Norte 17 Sudoeste 0 -- -- 80
2019-10-19 18:00:00 13.4 11 Sudoeste 28 Sudoeste 0 -- -- 78
2019-10-19 17:00:00 13.7 13 Sudoeste 26 Sudoeste 0 -- -- 73
2019-10-19 16:00:00 13.8 18 Sudoeste 39 Sudoeste 0 -- -- 74
2019-10-19 15:00:00 15.6 18 Sudoeste 32 Sudoeste 0 -- -- 63
2019-10-19 14:00:00 13.9 12 Sudoeste 22 Sudoeste 0 -- -- 70
2019-10-19 13:00:00 12.3 12 Sur 23 Sudoeste 0 -- -- 75
2019-10-19 12:00:00 11.8 9 Sudoeste 20 Sudoeste 0 -- -- 82
2019-10-19 11:00:00 9.8 10 Sudoeste 17 Sudoeste 0 -- -- 91
2019-10-19 10:00:00 9.3 7 Sudoeste 15 Sudoeste 0 -- -- 94
2019-10-19 09:00:00 8.7 8 Sudoeste 13 Sudoeste 0 -- -- 93
2019-10-19 08:00:00 8.8 4 Oeste 10 Oeste 0 -- -- 88
2019-10-19 07:00:00 9.3 6 Sudoeste 14 Sudoeste 0 -- -- 89
2019-10-19 06:00:00 9.6 7 Sudoeste 21 Sudoeste 0 -- -- 88
2019-10-19 05:00:00 11.1 15 Sudoeste 30 Sudoeste 0 -- -- 76
2019-10-19 04:00:00 11.3 19 Sudoeste 36 Oeste 0 -- -- 76
2019-10-19 03:00:00 11.4 18 Oeste 33 Oeste 0 -- -- 78
2019-10-19 02:00:00 11.8 16 Sudoeste 31 Sudoeste 0 -- -- 82
2019-10-19 01:00:00 11.9 10 Sudoeste 21 Sudoeste 0 -- -- 83
2019-10-19 00:00:00 12.6 11 Sudoeste 19 Sudoeste 0 -- -- 78
2019-10-18 23:00:00 13.4 11 Sudoeste 19 Sudoeste 0 -- -- 79
2019-10-18 22:00:00 14.3 10 Oeste 23 Oeste 0 -- -- 77
2019-10-18 21:00:00 14.8 12 Sudoeste 20 Sudoeste 0 -- -- 77
2019-10-18 20:00:00 16 15 Sudoeste 36 Sudoeste 0 -- -- 73
2019-10-18 19:00:00 17.7 19 Sudoeste 36 Sudoeste 0 -- -- 65
2019-10-18 18:00:00 17.3 21 Sudoeste 41 Sudoeste 0 -- -- 69
2019-10-18 17:00:00 17.8 22 Sudoeste 37 Sudoeste 0 -- -- 73
2019-10-18 16:00:00 17.7 22 Sudoeste 35 Sudoeste 0 -- -- 77
2019-10-18 15:00:00 18.5 20 Sudoeste 31 Oeste 0 -- -- 77
2019-10-18 14:00:00 16.1 17 Sudoeste 29 Sudoeste 0 -- -- 98
2019-10-18 13:00:00 15.2 13 Sudoeste 23 Sudoeste 0 -- -- 99
2019-10-18 12:00:00 15.1 10 Sudoeste 19 Sudoeste 0 -- -- 99
2019-10-18 11:00:00 14.6 11 Sudoeste 19 Sudoeste 0 -- -- 99
2019-10-18 10:00:00 14.2 6 Sudoeste 17 Sudoeste 0 -- -- 99
2019-10-18 09:00:00 14 10 Sudoeste 18 Sudoeste 0 -- -- 99
2019-10-18 08:00:00 13.9 13 Sudoeste 24 Sudoeste 0 -- -- 99
2019-10-18 07:00:00 13.8 13 Sudoeste 28 Oeste 0 -- -- 99
2019-10-18 06:00:00 13.6 10 Sudoeste 18 Sudoeste 0.2 -- -- 98
2019-10-18 05:00:00 13.4 8 Sudoeste 15 Sudoeste 0.2 -- -- 98
2019-10-18 04:00:00 13.5 7 Sudoeste 16 Sudoeste 0.2 -- -- 98
2019-10-18 03:00:00 13.4 5 Sudoeste 17 Sudoeste 0.2 -- -- 97
2019-10-18 02:00:00 13.4 6 Sudoeste 14 Sudoeste 0 -- -- 96
2019-10-18 01:00:00 13.5 3 Oeste 8 Oeste 1.2 -- -- 94
2019-10-18 00:00:00 13.6 3 Sur 5 Sur 0 -- -- 92
2019-10-17 23:00:00 13.5 0 Calma 5 Noroeste 0 -- -- 91
2019-10-17 22:00:00 13.5 0 Calma 10 Sudoeste 0 -- -- 91
2019-10-17 21:00:00 13.6 4 Sudoeste 14 Sudoeste 0 -- -- 90
2019-10-17 20:00:00 14 7 Sudoeste 15 Sudoeste 0 -- -- 88
2019-10-17 19:00:00 14.8 7 Sudoeste 15 Sur 0 -- -- 84
2019-10-17 18:00:00 15.2 8 Sudoeste 15 Sudoeste 0 -- -- 81
2019-10-17 17:00:00 14.8 8 Sudoeste 18 Sudoeste 0 -- -- 82
2019-10-17 16:00:00 14.9 11 Sudoeste 22 Sudoeste 0 -- -- 80
2019-10-17 15:00:00 15.5 9 Sudoeste 19 Sudoeste 0 -- -- 74
2019-10-17 14:00:00 14.6 8 Sudoeste 16 Sudoeste 0 -- -- 73
2019-10-17 13:00:00 12.2 5 Sur 9 Sur 0 -- -- 80
2019-10-17 12:00:00 11.6 3 Sudeste 6 Sudoeste 0 -- -- 83
2019-10-17 11:00:00 10 2 Sudeste 5 Nordeste 0 -- -- 87
2019-10-17 10:00:00 9.2 3 Sudeste 8 Este 0.8 -- -- 87
2019-10-17 09:00:00 9.3 3 Este 5 Este 0 -- -- 80
2019-10-17 08:00:00 9.2 3 Este 6 Nordeste 0 -- -- 78
2019-10-17 07:00:00 9.1 2 Este 5 Sudeste 0 -- -- 77
2019-10-17 06:00:00 8.3 0 Calma 5 Nordeste 0 -- -- 77
2019-10-17 05:00:00 8 2 Este 7 Nordeste 0 -- -- 76
2019-10-17 04:00:00 7.5 2 Este 4 Este 0 -- -- 77
2019-10-17 03:00:00 8 0 Calma 5 Este 0 -- -- 75
2019-10-17 02:00:00 9 3 Sudeste 8 Sur 0 -- -- 73
2019-10-17 01:00:00 9.8 3 Sur 8 Sudeste 0 -- -- 69
2019-10-17 00:00:00 10 2 Este 5 Nordeste 0 -- -- 70
2019-10-16 23:00:00 10.7 2 Nordeste 8 Sudeste 0 -- -- 58
2019-10-16 22:00:00 11.4 0 Calma 6 Noroeste 0 -- -- 60
2019-10-16 21:00:00 12.7 0 Calma 12 Sudoeste 0 -- -- 51
2019-10-16 20:00:00 14.1 5 Sudoeste 24 Sudoeste 0 -- -- 45
2019-10-16 19:00:00 16.1 10 Sudoeste 22 Sudoeste 0 -- -- 41
2019-10-16 18:00:00 17.1 12 Sudoeste 23 Sudoeste 0 -- -- 42
2019-10-16 17:00:00 18.1 10 Sudoeste 22 Sudoeste 0 -- -- 43
2019-10-16 16:00:00 17.7 12 Sudoeste 25 Sudoeste 0 -- -- 49
2019-10-16 15:00:00 16.8 5 Sudoeste 15 Oeste 0 -- -- 50
2019-10-16 14:00:00 15.2 7 Sudoeste 16 Sur 0 -- -- 54
2019-10-16 13:00:00 13.8 9 Sudeste 15 Sudeste 0 -- -- 58
2019-10-16 12:00:00 11.6 2 Nordeste 8 Oeste 0 -- -- 65
2019-10-16 11:00:00 10 3 Este 10 Este 0 -- -- 71
2019-10-16 10:00:00 8.5 6 Este 11 Este 0 -- -- 77
2019-10-16 09:00:00 6.1 4 Este 8 Este 0 -- -- 84
2019-10-16 08:00:00 6 3 Este 5 Este 0 -- -- 84
2019-10-16 07:00:00 7 0 Calma 6 Sudoeste 0 -- -- 78
2019-10-16 06:00:00 6.8 3 Norte 4 Este 0 -- -- 78
2019-10-16 05:00:00 7.3 3 Este 6 Este 0 -- -- 77
2019-10-16 04:00:00 8 0 Calma 6 Oeste 0 -- -- 72
2019-10-16 03:00:00 8.7 0 Calma 5 Oeste 0 -- -- 69
2019-10-16 02:00:00 9.8 0 Calma 5 Sudoeste 0 -- -- 65
2019-10-16 01:00:00 9.9 2 Sudoeste 6 Noroeste 0 -- -- 68
2019-10-16 00:00:00 9.8 3 Noroeste 8 Norte 0 -- -- 63
2019-10-15 23:00:00 9.1 0 Calma 3 Noroeste 0 -- -- 67
2019-10-15 22:00:00 10.1 0 Calma 9 Sudoeste 0 -- -- 63
2019-10-15 21:00:00 11 6 Sudoeste 13 Sudoeste 0 -- -- 59
2019-10-15 20:00:00 12.2 10 Sudoeste 18 Sudoeste 0 -- -- 57
2019-10-15 19:00:00 13.5 9 Sudoeste 25 Sudoeste 0 -- -- 52
2019-10-15 18:00:00 14.6 15 Sudoeste 30 Sudoeste 0 -- -- 47
2019-10-15 17:00:00 15.2 18 Sudoeste 28 Sudoeste 0 -- -- 46
2019-10-15 16:00:00 15.5 15 Oeste 26 Sudoeste 0 -- -- 47
2019-10-15 15:00:00 15.5 15 Sudoeste 27 Sudoeste 0 -- -- 47
2019-10-15 14:00:00 14.9 10 Oeste 21 Oeste 0 -- -- 46
2019-10-15 13:00:00 13.6 3 Oeste 15 Nordeste 0 -- -- 49
2019-10-15 12:00:00 11.9 3 Norte 20 Oeste 0 -- -- 55
2019-10-15 11:00:00 11 10 Oeste 26 Noroeste 0 -- -- 58
2019-10-15 10:00:00 9.2 15 Noroeste 30 Noroeste 0 -- -- 65
2019-10-15 09:00:00 8.1 18 Noroeste 33 Noroeste 0 -- -- 67
2019-10-15 08:00:00 7.6 5 Oeste 23 Sudoeste 0 -- -- 68
2019-10-15 07:00:00 6.6 3 Sur 13 Sudeste 0 -- -- 72
2019-10-15 06:00:00 7.1 6 Oeste 23 Noroeste 0 -- -- 69
2019-10-15 05:00:00 7.6 15 Noroeste 40 Noroeste 0 -- -- 67
2019-10-15 04:00:00 7.9 21 Noroeste 41 Noroeste 0 -- -- 67
2019-10-15 03:00:00 8.1 24 Noroeste 44 Noroeste 0 -- -- 66
2019-10-15 02:00:00 8 17 Noroeste 27 Noroeste 0 -- -- 67
2019-10-15 01:00:00 8.2 11 Noroeste 23 Noroeste 0 -- -- 69
2019-10-15 00:00:00 8.8 13 Noroeste 36 Noroeste 0 -- -- 73
2019-10-14 23:00:00 8.5 9 Noroeste 23 Noroeste 0 -- -- 75
2019-10-14 22:00:00 8.9 11 Oeste 28 Oeste 0 -- -- 77
2019-10-14 21:00:00 8.9 11 Oeste 21 Oeste 0 -- -- 94
2019-10-14 20:00:00 9.7 9 Sudoeste 18 Oeste 0 -- -- 93
2019-10-14 19:00:00 10.7 10 Sudoeste 37 Oeste 3 -- -- 92
2019-10-14 18:00:00 12.4 19 Oeste 40 Oeste 0.2 -- -- 81
2019-10-14 17:00:00 16.4 18 Oeste 58 Sudoeste 0 -- -- 50
2019-10-14 16:00:00 17.9 30 Oeste 53 Oeste 0 -- -- 42
2019-10-14 15:00:00 17.3 26 Oeste 48 Oeste 0 -- -- 45
2019-10-14 14:00:00 16 25 Oeste 51 Oeste 0 -- -- 55
2019-10-14 13:00:00 16.2 22 Oeste 46 Sudoeste 0 -- -- 65
2019-10-14 12:00:00 13 21 Sudoeste 40 Oeste 0.2 -- -- 89
2019-10-14 11:00:00 15 23 Sudoeste 41 Sudoeste 0 -- -- 73
2019-10-14 10:00:00 14.9 13 Sudoeste 26 Sudoeste 0 -- -- 74
2019-10-14 09:00:00 14.9 16 Sudoeste 27 Sudoeste 0 -- -- 70
2019-10-14 08:00:00 15 3 Sudoeste 21 Sur 0 -- -- 65
2019-10-14 07:00:00 15.1 5 Este 11 Este 0 -- -- 63
2019-10-14 06:00:00 15.7 9 Este 14 Este 0 -- -- 60
2019-10-14 05:00:00 16.3 6 Este 15 Este 0 -- -- 59
2019-10-14 04:00:00 16.1 6 Este 15 Este 0 -- -- 66
2019-10-14 03:00:00 15.3 6 Este 13 Este 0 -- -- 71
2019-10-14 02:00:00 16.8 9 Este 18 Nordeste 0 -- -- 65
2019-10-14 01:00:00 16.2 11 Nordeste 19 Nordeste 0 -- -- 66
2019-10-14 00:00:00 16 7 Nordeste 12 Nordeste 0 -- -- 66